createdAt,value
2022-11-16T00:00:26.638Z,12.40
2022-11-16T00:05:30.483Z,12.30
2022-11-16T00:10:34.150Z,12.40
2022-11-16T00:15:39.151Z,12.40
2022-11-16T00:20:42.794Z,12.40
2022-11-16T00:25:46.490Z,12.40
2022-11-16T00:30:59.454Z,12.40
2022-11-16T00:36:04.832Z,12.40
2022-11-16T00:41:09.252Z,12.40
2022-11-16T00:46:14.273Z,12.40
2022-11-16T00:51:18.059Z,12.40
2022-11-16T00:56:22.063Z,12.40
2022-11-16T01:01:27.388Z,12.40
2022-11-16T01:06:31.354Z,12.50
2022-11-16T01:11:55.411Z,12.40
2022-11-16T01:17:00.389Z,12.50
2022-11-16T01:22:04.313Z,12.50
2022-11-16T01:27:08.075Z,12.50
2022-11-16T01:32:16.204Z,12.50
2022-11-16T01:37:21.142Z,12.50
2022-11-16T01:42:27.173Z,12.50
2022-11-16T01:47:35.379Z,12.50
2022-11-16T01:52:45.133Z,12.50
2022-11-16T01:57:50.620Z,12.50
2022-11-16T02:02:56.023Z,12.60
2022-11-16T02:08:41.287Z,12.50
2022-11-16T02:13:57.202Z,12.60
2022-11-16T02:19:17.432Z,12.60
2022-11-16T02:24:40.407Z,12.60
2022-11-16T02:29:48.618Z,12.60
2022-11-16T02:35:01.220Z,12.60
2022-11-16T02:40:08.974Z,12.60
2022-11-16T02:45:18.512Z,12.60
2022-11-16T02:50:24.398Z,12.50
2022-11-16T02:55:33.561Z,12.50
2022-11-16T03:00:46.867Z,12.60
2022-11-16T03:05:57.108Z,12.60
2022-11-16T03:11:22.942Z,12.50
2022-11-16T03:16:34.446Z,12.50
2022-11-16T03:21:42.527Z,12.40
2022-11-16T03:26:51.828Z,12.40
2022-11-16T03:32:03.244Z,12.30
2022-11-16T03:37:07.662Z,12.30
2022-11-16T03:42:17.949Z,12.30
2022-11-16T03:47:23.392Z,12.30
2022-11-16T03:52:27.319Z,12.20
2022-11-16T03:57:31.151Z,12.10
2022-11-16T04:02:38.086Z,12.10
2022-11-16T04:07:59.032Z,12.10
2022-11-16T04:13:21.507Z,12.00
2022-11-16T04:18:44.154Z,12.00
2022-11-16T04:24:07.922Z,12.00
2022-11-16T04:29:12.642Z,11.90
2022-11-16T04:34:35.375Z,11.90
2022-11-16T04:39:40.304Z,11.90
2022-11-16T04:45:02.257Z,11.80
2022-11-16T04:50:13.985Z,11.70
2022-11-16T04:55:19.120Z,11.70
2022-11-16T05:00:26.090Z,11.70
2022-11-16T05:05:31.203Z,11.70
2022-11-16T05:10:36.657Z,11.60
2022-11-16T05:15:40.383Z,11.60
2022-11-16T05:21:04.341Z,11.50
2022-11-16T05:26:13.528Z,11.50
2022-11-16T05:31:17.164Z,11.50
2022-11-16T05:36:22.606Z,11.50
2022-11-16T05:41:27.144Z,11.40
2022-11-16T05:46:30.841Z,11.40
2022-11-16T05:51:39.049Z,11.40
2022-11-16T05:56:44.429Z,11.30
2022-11-16T06:01:48.890Z,11.30
2022-11-16T06:06:54.440Z,11.30
2022-11-16T06:11:59.516Z,11.20
2022-11-16T06:17:04.592Z,11.20
2022-11-16T06:22:09.577Z,11.10
2022-11-16T06:27:13.541Z,11.10
2022-11-16T06:32:18.440Z,11.10
2022-11-16T06:37:23.852Z,11.10
2022-11-16T06:42:27.671Z,11.00
2022-11-16T06:47:32.422Z,11.00
2022-11-16T06:52:39.064Z,10.90
2022-11-16T06:57:44.155Z,10.90
2022-11-16T07:02:47.927Z,10.90
2022-11-16T07:07:56.699Z,10.80
2022-11-16T07:13:03.428Z,10.80
2022-11-16T07:18:08.739Z,10.80
2022-11-16T07:23:17.799Z,10.70
2022-11-16T07:28:22.534Z,10.70
2022-11-16T07:33:27.052Z,10.70
2022-11-16T07:38:50.585Z,10.70
2022-11-16T07:43:56.933Z,10.70
2022-11-16T07:49:11.275Z,10.60
2022-11-16T07:54:32.620Z,10.60
2022-11-16T07:59:36.291Z,10.60
2022-11-16T08:04:41.728Z,10.60
2022-11-16T08:09:47.652Z,10.70
2022-11-16T08:14:52.955Z,10.70
2022-11-16T08:19:57.190Z,10.70
2022-11-16T08:25:02.685Z,10.70
2022-11-16T08:30:09.934Z,10.70
2022-11-16T08:35:15.473Z,10.80
2022-11-16T08:40:22.209Z,10.80
2022-11-16T08:45:27.486Z,10.70
2022-11-16T08:50:55.551Z,10.80
2022-11-16T08:56:04.465Z,10.80
2022-11-16T09:01:11.074Z,10.80
2022-11-16T09:06:15.488Z,10.90
2022-11-16T09:11:22.885Z,11.00
2022-11-16T09:16:27.993Z,10.90
2022-11-16T09:21:31.778Z,10.90
2022-11-16T09:26:36.849Z,10.90
2022-11-16T09:31:40.781Z,10.90
2022-11-16T09:36:44.462Z,10.90
2022-11-16T09:42:01.141Z,10.90
2022-11-16T09:47:07.392Z,11.00
2022-11-16T09:52:25.880Z,11.10
2022-11-16T09:57:35.359Z,11.10
2022-11-16T10:02:44.408Z,11.20
2022-11-16T10:07:51.292Z,11.20
2022-11-16T10:13:00.757Z,11.20
2022-11-16T10:18:28.744Z,11.30
2022-11-16T10:23:43.085Z,11.40
2022-11-16T10:29:12.630Z,11.40
2022-11-16T10:34:21.891Z,11.50
2022-11-16T10:39:27.509Z,11.50
2022-11-16T10:44:38.694Z,11.60
2022-11-16T10:49:47.902Z,11.60
2022-11-16T10:54:51.710Z,11.60
2022-11-16T10:59:57.226Z,11.70
2022-11-16T11:05:15.414Z,11.70
2022-11-16T11:10:29.888Z,11.80
2022-11-16T11:15:35.193Z,11.80
2022-11-16T11:20:44.850Z,11.80
2022-11-16T11:25:55.208Z,11.80
2022-11-16T11:31:03.694Z,11.80
2022-11-16T11:36:13.170Z,11.80
2022-11-16T11:41:20.606Z,11.80
2022-11-16T11:46:50.181Z,11.80
2022-11-16T11:51:57.218Z,11.80
2022-11-16T11:57:04.298Z,11.80
2022-11-16T12:02:17.731Z,11.90
2022-11-16T12:07:36.928Z,12.00
2022-11-16T12:12:55.074Z,12.00
2022-11-16T12:18:15.089Z,12.10
2022-11-16T12:23:37.677Z,12.20
2022-11-16T12:29:05.049Z,12.30
2022-11-16T12:34:21.126Z,12.30
2022-11-16T12:39:27.642Z,12.30
2022-11-16T12:44:42.183Z,12.30
2022-11-16T12:50:17.983Z,12.30
2022-11-16T12:55:29.648Z,12.30
2022-11-16T13:00:44.788Z,12.30
2022-11-16T13:05:57.107Z,12.30
2022-11-16T13:11:08.973Z,12.30
2022-11-16T13:16:17.342Z,12.40
2022-11-16T13:21:31.221Z,12.50
2022-11-16T13:26:41.852Z,12.50
2022-11-16T13:31:53.035Z,12.50
2022-11-16T13:36:58.340Z,12.50
2022-11-16T13:42:08.412Z,12.50
2022-11-16T13:47:23.684Z,12.50
2022-11-16T13:53:23.497Z,12.50
2022-11-16T13:58:10.306Z,12.60
2022-11-16T14:03:39.673Z,12.50
2022-11-16T14:08:52.504Z,12.50
2022-11-16T14:13:56.699Z,12.50
2022-11-16T14:19:03.131Z,12.50
2022-11-16T14:24:28.308Z,12.50
2022-11-16T14:29:50.713Z,12.40
2022-11-16T14:34:57.141Z,12.40
2022-11-16T14:40:07.720Z,12.40
2022-11-16T14:45:21.971Z,12.40
2022-11-16T14:50:27.295Z,12.40
2022-11-16T14:55:32.540Z,12.40
2022-11-16T15:00:37.258Z,12.40
2022-11-16T15:05:41.120Z,12.50
2022-11-16T15:10:52.342Z,12.40
2022-11-16T15:16:16.962Z,12.40
2022-11-16T15:21:24.606Z,12.40
2022-11-16T15:26:29.670Z,12.40
2022-11-16T15:31:35.417Z,12.40
2022-11-16T15:36:41.114Z,12.30
2022-11-16T15:41:47.109Z,12.30
2022-11-16T15:46:55.069Z,12.30
2022-11-16T15:51:59.668Z,12.30
2022-11-16T15:57:13.308Z,12.20
2022-11-16T16:02:20.182Z,12.20
2022-11-16T16:07:40.677Z,12.20
2022-11-16T16:12:51.696Z,12.10
2022-11-16T16:17:56.132Z,12.10
2022-11-16T16:23:10.728Z,12.00
2022-11-16T16:28:15.807Z,12.00
2022-11-16T16:33:22.157Z,11.90
2022-11-16T16:38:26.040Z,11.90
2022-11-16T16:43:32.475Z,11.90
2022-11-16T16:48:39.088Z,11.80
2022-11-16T16:53:47.031Z,11.80
2022-11-16T16:58:52.075Z,11.80
2022-11-16T17:03:57.209Z,11.80
2022-11-16T17:09:00.973Z,11.70
2022-11-16T17:14:07.864Z,11.70
2022-11-16T17:19:13.679Z,11.70
2022-11-16T17:24:17.377Z,11.70
2022-11-16T17:29:25.469Z,11.70
2022-11-16T17:34:29.410Z,11.60
2022-11-16T17:39:33.140Z,11.60
2022-11-16T17:44:38.189Z,11.60
2022-11-16T17:49:41.864Z,11.60
2022-11-16T17:54:45.527Z,11.60
2022-11-16T17:59:50.660Z,11.60
2022-11-16T18:04:54.416Z,11.60
2022-11-16T18:09:58.147Z,11.70
2022-11-16T18:20:27.778Z,11.70
2022-11-16T18:25:31.573Z,11.70
2022-11-16T18:30:36.661Z,11.70
2022-11-16T18:35:40.353Z,11.70
2022-11-16T18:40:44.060Z,11.70
2022-11-16T18:45:49.220Z,11.70
2022-11-16T18:50:53.056Z,11.80
2022-11-16T18:55:58.182Z,11.80
2022-11-16T19:01:04.862Z,11.80
2022-11-16T19:06:10.252Z,11.80
2022-11-16T19:11:16.942Z,11.80
2022-11-16T19:16:22.659Z,11.80
2022-11-16T19:21:26.801Z,11.80
2022-11-16T19:26:30.530Z,11.80
2022-11-16T19:31:35.769Z,11.70
2022-11-16T19:36:39.697Z,11.70
2022-11-16T19:41:43.379Z,11.70
2022-11-16T19:46:48.446Z,11.70
2022-11-16T19:51:52.264Z,11.70
2022-11-16T19:56:55.991Z,11.70
2022-11-16T20:02:01.209Z,11.70
2022-11-16T20:07:05.661Z,11.60
2022-11-16T20:12:09.400Z,11.60
2022-11-16T20:17:14.408Z,11.60
2022-11-16T20:22:18.675Z,11.60
2022-11-16T20:27:22.769Z,11.60
2022-11-16T20:32:28.041Z,11.60
2022-11-16T20:37:31.775Z,11.70
2022-11-16T20:42:35.482Z,11.60
2022-11-16T20:47:40.518Z,11.60
2022-11-16T20:52:47.256Z,11.60
2022-11-16T20:57:55.200Z,11.60
2022-11-16T21:03:00.287Z,11.60
2022-11-16T21:08:03.997Z,11.60
2022-11-16T21:13:25.995Z,11.60
2022-11-16T21:18:31.624Z,11.70
2022-11-16T21:23:37.278Z,11.60
2022-11-16T21:28:44.641Z,11.60
2022-11-16T21:33:49.658Z,11.60
2022-11-16T21:38:54.106Z,11.60
2022-11-16T21:43:58.071Z,11.60
2022-11-16T21:49:03.197Z,11.50
2022-11-16T21:54:07.085Z,11.50
2022-11-16T21:59:10.786Z,11.50
2022-11-16T22:04:47.537Z,11.40
2022-11-16T22:09:51.297Z,11.30
2022-11-16T22:14:55.092Z,11.30
2022-11-16T22:20:00.213Z,11.30
2022-11-16T22:25:04.238Z,11.20
2022-11-16T22:30:09.466Z,11.20
2022-11-16T22:35:14.492Z,11.10
2022-11-16T22:40:18.285Z,11.10
2022-11-16T22:45:21.954Z,11.10
2022-11-16T22:50:27.132Z,11.10
2022-11-16T22:55:30.841Z,11.10
2022-11-16T23:00:40.524Z,11.10
2022-11-16T23:05:46.867Z,11.10
2022-11-16T23:11:04.407Z,11.10
2022-11-16T23:16:08.670Z,11.10
2022-11-16T23:21:31.126Z,11.10
2022-11-16T23:26:52.084Z,11.00
2022-11-16T23:31:55.822Z,11.00
2022-11-16T23:37:04.611Z,11.00
2022-11-16T23:42:26.111Z,10.90
2022-11-16T23:47:29.827Z,11.00
2022-11-16T23:52:34.831Z,10.90
2022-11-16T23:57:38.481Z,11.00
